Latest Weather Observations for Karratha

IDW60801

Issued at 9:34 am WST Friday 20 January 2017 (issued every 30 minutes, with the page automatically refreshed every 10 minutes)

About weather observations | Map of weather stations | Latest weather observations for WA | Other Formats
Station Details ID: 004083 Name: KARRATHA AERO Lat: -20.71 Lon: 116.77 Height: 5.3 m
Data from the previous 72 hours. | See also: Recent months at Karratha
Date/Time
WST
Temp
°C
App
Temp
°C
Dew
Point
°C
Rel
Hum
%
Delta-T
°C
Wind Press
QNH
hPa
Press
MSL
hPa
Rain since
9am
mm
Dir  Spd
km/h
Gust
km/h
Spd
kts
Gust
kts
20/09:30am 28.9 25.9 18.7 54 6.6 W 32 39 17 21 1004.4 1004.3 0.0
20/09:00am 28.5 25.2 18.0 53 6.7 W 32 37 17 20 1004.6 1004.5 0.0
20/08:30am 27.5 24.0 17.9 55 6.1 WSW 33 39 18 21 1004.6 1004.5 0.0
20/08:00am 26.5 22.6 17.8 58 5.5 WSW 35 43 19 23 1004.3 1004.2 0.0
20/07:30am 25.9 22.2 18.3 63 4.8 WSW 35 41 19 22 1004.4 1004.3 0.0
20/07:00am 25.3 21.1 18.0 64 4.6 W 37 44 20 24 1004.0 1003.9 0.0
20/06:30am 24.6 21.4 18.5 69 3.9 WSW 33 43 18 23 1003.8 1003.7 0.0
20/06:00am 24.6 21.7 18.8 70 3.7 WSW 32 39 17 21 1003.5 1003.4 0.0
20/05:30am 24.6 21.8 19.0 71 3.6 WSW 32 39 17 21 1003.3 1003.2 0.0
20/05:00am 24.7 21.8 19.3 72 3.5 WSW 33 41 18 22 1003.0 1002.9 0.0
20/04:30am 24.9 22.3 19.9 74 3.2 WSW 33 39 18 21 1003.3 1003.2 0.0
20/04:00am 25.1 22.6 20.1 74 3.3 WSW 33 41 18 22 1002.9 1002.8 0.0
20/03:30am 25.2 23.0 20.7 76 2.9 WSW 33 41 18 22 1003.1 1003.0 0.0
20/03:00am 25.4 23.2 20.4 74 3.3 WSW 32 41 17 22 1003.0 1002.9 0.0
20/02:30am 25.6 23.4 21.5 78 2.7 WSW 35 46 19 25 1003.0 1002.9 0.0
20/02:00am 25.9 23.6 22.0 79 2.6 WSW 37 46 20 25 1002.9 1002.8 0.0
20/01:30am 26.2 23.9 22.7 81 2.4 WSW 39 46 21 25 1003.1 1003.0 0.0
20/01:00am 26.6 24.8 22.9 80 2.5 WSW 37 48 20 26 1003.3 1003.2 0.0
20/12:30am 27.0 24.9 23.0 79 2.7 WSW 39 48 21 26 1003.3 1003.2 0.0
20/12:00am 27.1 25.3 23.6 81 2.4 W 39 46 21 25 1003.6 1003.5 0.0
 
Date/Time
WST
Temp
°C
App
Temp
°C
Dew
Point
°C
Rel
Hum
%
Delta-T
°C
Wind Press
QNH
hPa
Press
MSL
hPa
Rain since
9am
mm
Dir  Spd
km/h
Gust
km/h
Spd
kts
Gust
kts
19/11:30pm 27.1 24.9 23.6 81 2.4 W 41 50 22 27 1003.8 1003.7 0.0
19/11:00pm 27.1 24.9 23.6 81 2.4 W 41 46 22 25 1004.2 1004.1 0.0
19/10:30pm 27.2 24.5 23.4 80 2.6 W 43 50 23 27 1004.4 1004.3 0.0
19/10:00pm 27.3 25.7 23.3 79 2.7 W 37 43 20 23 1004.3 1004.2 0.0
19/09:30pm 27.4 25.4 23.2 78 2.9 W 39 46 21 25 1004.2 1004.1 0.0
19/09:00pm 27.6 25.6 23.2 77 3.0 W 39 46 21 25 1004.0 1003.9 0.0
19/08:30pm 27.7 25.3 22.6 74 3.5 W 39 48 21 26 1003.9 1003.8 0.0
19/08:00pm 27.7 24.6 22.6 74 3.5 W 43 50 23 27 1003.5 1003.4 0.0
19/07:30pm 27.8 24.6 22.5 73 3.6 W 43 50 23 27 1003.5 1003.4 0.0
19/07:00pm 28.2 25.9 22.7 72 3.7 W 39 54 21 29 1003.2 1003.1 0.0
19/06:30pm 28.8 25.9 22.3 68 4.4 W 41 54 22 29 1002.6 1002.5 0.0
19/06:00pm 29.2 26.2 22.2 66 4.8 W 41 48 22 26 1002.3 1002.2 0.0
19/05:30pm 29.9 27.0 22.3 63 5.2 W 41 50 22 27 1002.0 1001.9 0.0
19/05:00pm 30.3 27.7 22.2 62 5.5 W 39 50 21 27 1002.1 1002.0 0.0
19/04:30pm 29.9 26.4 22.3 63 5.2 W 44 54 24 29 1002.0 1001.9 0.0
19/04:00pm 30.3 26.6 21.9 60 5.7 W 44 52 24 28 1002.2 1002.1 0.0
19/03:30pm 30.5 27.2 21.6 59 6.0 W 41 50 22 27 1002.5 1002.4 0.0
19/03:00pm 30.4 27.1 21.5 59 6.0 W 41 48 22 26 1002.8 1002.7 0.0
19/02:30pm 30.8 27.2 21.0 56 6.5 W 41 50 22 27 1003.3 1003.2 0.0
19/02:00pm 30.7 27.4 21.5 58 6.2 W 41 50 22 27 1003.8 1003.7 0.0
19/01:30pm 30.5 26.8 20.7 55 6.5 W 41 46 22 25 1004.1 1004.0 0.0
19/01:00pm 30.1 26.1 20.1 55 6.6 W 41 46 22 25 1004.4 1004.3 0.0
19/12:30pm 29.7 26.4 20.0 56 6.4 W 37 46 20 25 1004.8 1004.7 0.0
19/12:00pm 29.8 26.6 19.5 54 6.7 W 35 44 19 24 1005.2 1005.1 0.0
19/11:30am 29.9 27.0 19.3 53 6.9 W 33 41 18 22 1005.4 1005.3 0.0
19/11:00am 30.3 26.5 16.7 44 8.6 W 32 41 17 22 1006.0 1005.9 0.0
19/10:30am 29.4 26.1 17.9 50 7.3 WSW 32 39 17 21 1006.3 1006.2 0.0
19/10:00am 28.1 24.7 17.6 53 6.6 WSW 32 37 17 20 1006.6 1006.5 0.0
19/09:30am 27.1 23.7 17.8 56 5.9 WSW 32 39 17 21 1006.8 1006.7 0.0
19/09:00am 26.3 22.6 17.4 58 5.6 WSW 33 41 18 22 1006.9 1006.8 0.0
19/08:30am 25.4 22.2 17.3 61 5.0 WSW 30 37 16 20 1007.0 1006.9 0.0
19/08:00am 25.0 21.6 17.7 64 4.6 WSW 32 37 17 20 1007.0 1006.9 0.0
19/07:30am 25.1 21.3 18.1 65 4.4 WSW 35 41 19 22 1006.6 1006.5 0.0
19/07:00am 24.4 20.9 17.9 67 4.1 WSW 33 39 18 21 1006.4 1006.3 0.0
19/06:30am 24.1 21.7 18.3 70 3.7 WSW 28 35 15 19 1006.2 1006.1 0.0
19/06:00am 23.8 20.6 18.2 71 3.5 WSW 32 37 17 20 1006.0 1005.9 0.0
19/05:30am 23.9 21.1 18.3 71 3.5 WSW 30 35 16 19 1005.5 1005.4 0.0
19/05:00am 24.2 21.0 18.6 71 3.6 WSW 33 39 18 21 1004.9 1004.8 0.0
19/04:30am 24.5 21.5 18.7 70 3.7 WSW 32 39 17 21 1004.6 1004.5 0.0
19/04:00am 24.7 21.5 18.6 69 3.9 WSW 33 41 18 22 1004.4 1004.3 0.0
19/03:30am 25.1 22.2 18.8 68 4.0 WSW 32 39 17 21 1004.3 1004.2 0.0
19/03:00am 25.6 23.2 19.0 67 4.2 WSW 30 35 16 19 1004.3 1004.2 0.0
19/02:30am 26.2 24.9 19.8 68 4.2 WSW 26 32 14 17 1004.5 1004.4 0.0
19/02:00am 26.4 24.7 19.8 67 4.3 WSW 28 35 15 19 1004.7 1004.6 0.0
19/01:30am 26.7 24.5 19.6 65 4.6 WSW 30 35 16 19 1005.0 1004.9 0.0
19/01:00am 27.1 24.8 20.2 66 4.5 WSW 32 39 17 21 1005.2 1005.1 0.0
19/12:30am 27.4 26.9 21.4 70 4.0 WSW 26 33 14 18 1005.8 1005.7 0.0
19/12:00am 27.9 26.1 21.2 67 4.5 WSW 32 37 17 20 1006.0 1005.9 0.0
 
Date/Time
WST
Temp
°C
App
Temp
°C
Dew
Point
°C
Rel
Hum
%
Delta-T
°C
Wind Press
QNH
hPa
Press
MSL
hPa
Rain since
9am
mm
Dir  Spd
km/h
Gust
km/h
Spd
kts
Gust
kts
18/11:30pm 28.1 27.3 23.0 74 3.5 WSW 32 41 17 22 1006.3 1006.2 0.0
18/11:00pm 27.9 26.8 23.5 77 3.0 W 35 41 19 22 1006.3 1006.2 0.0
18/10:30pm 27.9 26.2 23.1 75 3.3 W 37 46 20 25 1006.2 1006.1 0.0
18/10:00pm 28.1 26.5 23.2 74 3.4 W 37 44 20 24 1006.4 1006.3 0.0
18/09:30pm 28.1 26.2 22.8 73 3.6 WSW 37 44 20 24 1006.3 1006.2 0.0
18/09:00pm 28.2 27.0 23.3 75 3.4 W 35 43 19 23 1006.5 1006.4 0.0
18/08:30pm 28.2 27.7 23.6 76 3.2 W 32 43 17 23 1006.5 1006.4 0.0
18/08:00pm 28.3 27.7 23.7 76 3.2 W 33 43 18 23 1006.4 1006.3 0.0
18/07:30pm 28.4 26.7 23.8 76 3.2 W 39 44 21 24 1005.7 1005.6 0.0
18/07:00pm 28.7 26.9 22.9 71 4.0 W 37 43 20 23 1005.4 1005.3 0.0
18/06:30pm 29.0 26.6 22.5 68 4.4 W 39 46 21 25 1004.9 1004.8 0.0
18/06:00pm 29.3 27.6 22.5 67 4.6 W 35 43 19 23 1004.3 1004.2 0.0
18/05:30pm 29.7 27.5 22.9 67 4.6 W 39 48 21 26 1003.8 1003.7 0.0
18/05:00pm 30.0 28.4 23.2 67 4.7 W 37 46 20 25 1003.8 1003.7 0.0
18/04:30pm 30.4 29.5 23.1 65 5.0 WNW 33 46 18 25 1003.7 1003.6 0.0
18/04:00pm 29.9 28.5 22.9 66 4.8 WNW 35 43 19 23 1003.7 1003.6 0.0
18/03:30pm 30.2 28.9 23.1 65 4.9 WNW 35 44 19 24 1003.9 1003.8 0.0
18/03:00pm 30.1 28.7 23.0 65 4.9 WNW 35 44 19 24 1004.2 1004.1 0.0
18/02:30pm 30.3 29.3 23.0 65 5.0 WNW 33 41 18 22 1004.6 1004.5 0.0
18/02:00pm 30.1 29.3 23.0 65 4.9 WNW 32 43 17 23 1004.8 1004.7 0.0
18/01:30pm 31.3 31.1 23.4 63 5.5 WNW 30 39 16 21 1005.2 1005.1 0.0
18/01:00pm 31.1 31.0 23.5 64 5.3 WNW 30 37 16 20 1005.5 1005.4 0.0
18/12:30pm 31.2 31.3 23.3 63 5.4 WNW 28 35 15 19 1005.8 1005.7 0.0
18/12:00pm 31.2 31.7 23.3 63 5.5 WNW 26 33 14 18 1006.1 1006.0 0.0
18/11:30am 31.1 31.8 23.7 64 5.1 WNW 26 33 14 18 1006.2 1006.1 0.0
18/11:00am 31.5 32.7 23.9 64 5.3 WNW 24 30 13 16 1006.4 1006.3 0.0
18/10:30am 31.0 32.3 23.4 64 5.2 W 22 28 12 15 1006.4 1006.3 0.0
18/10:00am 30.5 31.5 22.9 64 5.2 W 22 28 12 15 1006.8 1006.7 0.0
18/09:30am 30.6 32.2 23.8 67 4.7 W 22 28 12 15 1006.9 1006.8 0.0
18/09:00am 29.8 31.6 23.5 69 4.3 W 20 26 11 14 1007.0 1006.9 0.0
18/08:30am 29.6 31.0 23.5 69 4.2 W 22 28 12 15 1006.8 1006.7 0.0
18/08:00am 28.6 30.1 23.7 75 3.4 WNW 22 30 12 16 1006.8 1006.7 0.0
18/07:30am 28.4 30.6 24.2 78 2.9 W 20 28 11 15 1006.8 1006.7 0.0
18/07:00am 27.9 30.2 24.1 80 2.6 WNW 19 22 10 12 1006.6 1006.5 0.0
18/06:30am 27.5 30.1 23.9 81 2.5 WNW 17 22 9 12 1006.4 1006.3 0.0
18/06:00am 27.4 30.3 23.8 81 2.5 WNW 15 20 8 11 1006.3 1006.2 0.0
18/05:30am 27.2 29.5 23.4 80 2.6 WNW 17 22 9 12 1006.0 1005.9 0.0
18/05:00am 27.3 29.2 23.5 80 2.6 WNW 19 22 10 12 1005.8 1005.7 0.0
18/04:30am 27.4 29.2 23.6 80 2.6 W 20 26 11 14 1005.8 1005.7 0.0
18/04:00am 27.3 29.1 23.5 80 2.6 WNW 20 24 11 13 1005.7 1005.6 0.0
18/03:30am 27.3 29.5 23.3 79 2.7 WNW 17 22 9 12 1005.6 1005.5 0.0
18/03:00am 27.5 29.1 23.3 78 2.9 W 20 26 11 14 1005.6 1005.5 0.0
18/02:30am 27.7 29.1 22.9 75 3.3 W 20 26 11 14 1005.7 1005.6 0.0
18/02:00am 27.6 29.3 23.4 78 2.9 WNW 20 26 11 14 1005.7 1005.6 0.0
18/01:30am 27.5 29.0 23.1 77 3.0 WNW 20 28 11 15 1005.9 1005.8 0.0
18/01:00am 27.9 28.5 22.8 74 3.5 W 24 30 13 16 1006.2 1006.1 0.0
18/12:30am 27.8 28.7 23.4 77 3.0 W 24 32 13 17 1006.3 1006.2 0.0
18/12:00am 27.9 28.3 23.1 75 3.3 W 26 30 14 16 1006.6 1006.5 0.0
 
Date/Time
WST
Temp
°C
App
Temp
°C
Dew
Point
°C
Rel
Hum
%
Delta-T
°C
Wind Press
QNH
hPa
Press
MSL
hPa
Rain since
9am
mm
Dir  Spd
km/h
Gust
km/h
Spd
kts
Gust
kts
17/11:30pm 27.9 28.4 23.3 76 3.1 W 26 33 14 18 1006.9 1006.8 0.0
17/11:00pm 27.9 28.0 23.3 76 3.2 W 28 32 15 17 1006.9 1006.8 0.0
17/10:30pm 28.0 28.6 23.4 76 3.2 WNW 26 33 14 18 1006.9 1006.8 0.0
17/10:00pm 28.3 28.5 23.4 75 3.4 W 28 33 15 18 1007.0 1006.9 0.0
17/09:30pm 28.3 29.5 23.9 77 3.0 WNW 24 32 13 17 1006.8 1006.7 0.0
17/09:00pm 28.2 29.4 23.8 77 3.0 WNW 24 30 13 16 1006.3 1006.2 0.0
17/08:30pm 28.1 28.8 23.7 77 3.0 WNW 26 32 14 17 1006.1 1006.0 0.0
17/08:00pm 28.3 29.5 23.9 77 3.0 WNW 24 32 13 17 1005.8 1005.7 0.0
17/07:30pm 28.4 29.2 23.8 76 3.2 WNW 26 33 14 18 1005.4 1005.3 0.0
17/07:00pm 28.8 30.0 23.9 75 3.4 WNW 24 32 13 17 1004.8 1004.7 0.0
17/06:30pm 29.2 29.7 23.9 73 3.7 WNW 28 35 15 19 1004.5 1004.4 0.0
17/06:00pm 29.8 30.3 24.0 71 4.0 WNW 28 33 15 18 1004.1 1004.0 0.0
17/05:30pm 30.1 30.9 23.8 69 4.4 WNW 26 33 14 18 1003.8 1003.7 0.0
17/05:00pm 30.7 31.2 23.9 67 4.7 WNW 28 35 15 19 1003.7 1003.6 0.0
17/04:30pm 31.3 31.3 23.1 61 5.6 NW 28 33 15 18 1003.6 1003.5 0.0
17/04:00pm 31.5 31.7 22.8 60 6.0 WNW 26 35 14 19 1003.7 1003.6 0.0
17/03:30pm 31.8 32.7 23.9 63 5.5 WNW 26 33 14 18 1003.9 1003.8 0.0
17/03:00pm 32.2 32.6 23.2 59 6.2 WNW 26 33 14 18 1004.2 1004.1 0.0
17/02:30pm 32.6 34.1 23.0 57 6.6 WNW 20 30 11 16 1004.6 1004.5 0.0
17/02:00pm 32.3 33.1 22.4 56 6.8 NW 22 30 12 16 1004.9 1004.8 0.0
17/01:30pm 32.3 33.6 22.7 57 6.6 NW 20 28 11 15 1005.2 1005.1 0.0
17/01:00pm 32.7 33.6 21.9 53 7.4 WNW 20 28 11 15 1005.3 1005.2 0.0
17/12:30pm 31.9 32.0 21.1 52 7.2 WNW 22 28 12 15 1005.5 1005.4 0.0
17/12:00pm 32.2 33.8 23.2 59 6.2 W 20 28 11 15 1005.6 1005.5 0.0
17/11:30am 31.1 32.4 22.4 60 5.9 WNW 19 24 10 13 1005.9 1005.8 0.0
17/11:00am 30.8 32.7 22.7 62 5.5 W 17 22 9 12 1006.1 1006.0 0.0
17/10:30am 30.7 32.5 22.6 62 5.5 WNW 17 20 9 11 1006.3 1006.2 0.0
17/10:00am 30.3 31.9 22.2 62 5.5 WNW 17 20 9 11 1006.3 1006.2 0.0

Other Formats:

Comma delimited format used in spreadsheet applications
http://www.bom.gov.au/fwo/IDW60801/IDW60801.95307.axf

JavaScript Object Notation format (JSON) in row-major order
http://www.bom.gov.au/fwo/IDW60801/IDW60801.95307.json